CheckWX is a tool to help pilots better visualize weather data.  It is not intended as a substitute for an official pre-flight weather briefing.

00:04:20 UTC

EPKK METAR
John Paul II International Kraków-Balice Airport
Kraków, Poland
Current

34 mins ago

EPKK 142330Z 06007KT 1500 -DZ BR OVC003 07/07 Q1013
Observed
Nov-14 @ 23:30 UTC
Wind
  • 060° at 7 KTS
Visibility
1,500 meters
Flight Rules
LIFR
Conditions
Light Drizzle, Mist
Cloud Levels
  • Overcast at 300' AGL
Temperature
C / 45°F
Dewpoint
C / 45°F
Humidity
100%
Altimeter
29.91" Hg
Pressure
1012.92 hPa
Previous

1 hour ago

EPKK 142300Z 07010KT 3000 BR OVC004 07/07 Q1013
Observed
Nov-14 @ 23:00 UTC
Wind
  • 070° at 10 KTS
Visibility
3,000 meters
Flight Rules
LIFR
Conditions
Mist
Cloud Levels
  • Overcast at 400' AGL
Temperature
C / 45°F
Dewpoint
C / 45°F
Humidity
100%
Altimeter
29.91" Hg
Pressure
1012.92 hPa
Previous

2 hours ago

EPKK 142230Z 06008KT 5000 BR OVC004 07/07 Q1013
Observed
Nov-14 @ 22:30 UTC
Wind
  • 060° at 8 KTS
Visibility
5,000 meters
Flight Rules
LIFR
Conditions
Mist
Cloud Levels
  • Overcast at 400' AGL
Temperature
C / 45°F
Dewpoint
C / 45°F
Humidity
100%
Altimeter
29.91" Hg
Pressure
1012.92 hPa